Time;durP1;ratioP1;P1;durP2;ratioP2;P2;SDS_P1;SDS_P2;PMS_P1;PMS_P2;Temp;Humidity;BMP_temperature;BMP_pressure;BME280_temperature;BME280_humidity;BME280_pressure;Samples;Min_cycle;Max_cycle;Signal;HPM_P1;HPM_P2
2022/04/06 12:41:16;;;;;;;4.53;1.15;;;;;;;;;;5290731;23;20075;-85
2022/04/06 12:43:44;;;;;;;3.83;1.48;;;;;;;;;;4937919;29;20444;-83
2022/04/06 12:46:10;;;;;;;3.13;1.30;;;;;;;;;;4954137;29;20023;-90
2022/04/06 12:48:37;;;;;;;1.67;1.35;;;;;;;;;;4957554;29;20428;-88
2022/04/06 12:51:18;;;;;;;2.20;1.40;;;;;;;;;;4956257;28;20056;-89
2022/04/06 12:53:51;;;;;;;1.88;1.45;;;;;;;;;;4956916;29;20027;-90
2022/04/06 12:56:22;;;;;;;2.58;1.55;;;;;;;;;;4956858;28;20090;-88
2022/04/06 12:59:04;;;;;;;3.92;1.83;;;;;;;;;;4957744;28;20070;-89
2022/04/06 13:01:30;;;;;;;1.35;1.17;;;;;;;;;;4956775;28;20019;-89
2022/04/06 13:03:56;;;;;;;4.03;1.40;;;;;;;;;;4957017;28;20055;-89
2022/04/06 13:06:21;;;;;;;5.63;1.33;;;;;;;;;;4956780;28;20042;-89
2022/04/06 13:08:46;;;;;;;5.65;1.73;;;;;;;;;;4956833;29;20030;-88
2022/04/06 13:11:12;;;;;;;2.05;1.42;;;;;;;;;;4956837;28;20031;-89
2022/04/06 13:13:37;;;;;;;1.52;1.40;;;;;;;;;;4957674;28;20027;-90
2022/04/06 13:16:02;;;;;;;1.23;1.13;;;;;;;;;;4957354;28;20019;-91
2022/04/06 13:18:27;;;;;;;3.35;1.30;;;;;;;;;;4957499;28;20094;-87
2022/04/06 13:20:52;;;;;;;4.68;1.60;;;;;;;;;;4956336;28;20035;-89
2022/04/06 13:23:18;;;;;;;2.83;1.30;;;;;;;;;;4956730;28;20031;-89
2022/04/06 13:25:43;;;;;;;2.40;1.30;;;;;;;;;;4957794;28;20106;-90
2022/04/06 13:28:08;;;;;;;3.33;1.40;;;;;;;;;;4956945;28;20082;-90
2022/04/06 13:30:33;;;;;;;1.80;1.25;;;;;;;;;;4956598;28;20019;-88
2022/04/06 13:32:59;;;;;;;2.78;1.33;;;;;;;;;;4957775;28;20023;-90
2022/04/06 13:35:24;;;;;;;1.95;1.38;;;;;;;;;;4956711;28;20023;-90
2022/04/06 13:37:49;;;;;;;3.47;1.45;;;;;;;;;;4956533;28;20436;-87
2022/04/06 13:40:15;;;;;;;4.43;1.50;;;;;;;;;;4957521;28;20051;-90
2022/04/06 13:42:40;;;;;;;4.53;1.45;;;;;;;;;;4956272;29;20512;-89
2022/04/06 13:45:06;;;;;;;4.38;1.92;;;;;;;;;;4957125;28;20023;-89
2022/04/06 13:47:32;;;;;;;5.13;1.90;;;;;;;;;;4957665;28;20020;-90
2022/04/06 13:49:57;;;;;;;1.73;1.42;;;;;;;;;;4956114;28;20491;-89
2022/04/06 13:52:22;;;;;;;3.20;1.55;;;;;;;;;;4957203;28;20110;-89
2022/04/06 13:54:48;;;;;;;3.95;1.58;;;;;;;;;;4955529;28;20055;-90
2022/04/06 13:57:13;;;;;;;5.07;1.67;;;;;;;;;;4955953;28;20031;-90
2022/04/06 13:59:38;;;;;;;4.22;2.33;;;;;;;;;;4955743;28;20024;-90
2022/04/06 14:02:04;;;;;;;2.97;1.88;;;;;;;;;;4955807;28;20026;-90
2022/04/06 14:04:29;;;;;;;1.48;1.38;;;;;;;;;;4956723;28;20019;-86
2022/04/06 14:06:54;;;;;;;4.38;1.60;;;;;;;;;;4954875;28;20050;-84
2022/04/06 14:09:22;;;;;;;3.03;1.67;;;;;;;;;;4955162;28;20471;-90
2022/04/06 14:11:49;;;;;;;3.70;1.60;;;;;;;;;;4954744;28;20126;-91
2022/04/06 14:14:15;;;;;;;4.45;1.98;;;;;;;;;;4954216;29;20048;-90
2022/04/06 14:16:40;;;;;;;6.40;1.95;;;;;;;;;;4955294;28;20483;-91
2022/04/06 14:19:06;;;;;;;4.20;2.10;;;;;;;;;;4954795;28;20023;-90
2022/04/06 14:21:34;;;;;;;4.28;2.58;;;;;;;;;;4955768;28;20413;-90
2022/04/06 14:24:00;;;;;;;3.42;2.08;;;;;;;;;;4971455;28;20023;-90
2022/04/06 14:26:26;;;;;;;5.38;2.30;;;;;;;;;;4971433;28;20720;-88
2022/04/06 14:28:51;;;;;;;2.28;1.90;;;;;;;;;;4971276;28;20034;-90
2022/04/06 14:31:16;;;;;;;3.90;2.38;;;;;;;;;;4955356;28;20559;-90
2022/04/06 14:33:41;;;;;;;4.85;2.17;;;;;;;;;;4955046;28;20031;-90
2022/04/06 14:36:07;;;;;;;5.60;2.30;;;;;;;;;;4954692;28;20019;-90
2022/04/06 14:38:32;;;;;;;8.13;2.90;;;;;;;;;;4954842;28;20031;-90
2022/04/06 14:40:58;;;;;;;9.43;3.25;;;;;;;;;;4969318;28;20066;-90
2022/04/06 14:43:24;;;;;;;7.75;2.80;;;;;;;;;;4954671;28;20349;-88
2022/04/06 14:45:50;;;;;;;10.63;2.90;;;;;;;;;;4953203;29;20495;-89
2022/04/06 14:48:18;;;;;;;13.07;3.75;;;;;;;;;;4955412;28;20024;-88
2022/04/06 14:50:43;;;;;;;4.20;2.42;;;;;;;;;;4954789;28;20464;-89
2022/04/06 14:53:10;;;;;;;12.32;3.20;;;;;;;;;;4955912;28;20035;-90
2022/04/06 14:55:36;;;;;;;9.65;2.75;;;;;;;;;;4970846;28;20263;-90
2022/04/06 14:58:02;;;;;;;4.20;2.50;;;;;;;;;;4955936;28;20066;-90
2022/04/06 15:00:28;;;;;;;3.13;2.30;;;;;;;;;;4955881;28;20415;-89
2022/04/06 15:02:54;;;;;;;2.45;2.08;;;;;;;;;;4971020;28;20015;-90
2022/04/06 15:05:21;;;;;;;3.15;2.03;;;;;;;;;;4955839;28;20075;-88
2022/04/06 15:07:47;;;;;;;4.50;2.05;;;;;;;;;;4970396;28;20078;-90
2022/04/06 15:10:12;;;;;;;6.82;2.83;;;;;;;;;;4970541;28;20061;-89
2022/04/06 15:12:38;;;;;;;5.85;2.28;;;;;;;;;;4970256;28;20380;-91
2022/04/06 15:15:03;;;;;;;4.93;2.15;;;;;;;;;;4955394;28;20029;-90
2022/04/06 15:17:28;;;;;;;5.50;2.33;;;;;;;;;;4955899;28;20444;-91
2022/04/06 15:19:54;;;;;;;4.32;2.40;;;;;;;;;;4950585;28;20562;-89
2022/04/06 15:22:20;;;;;;;4.40;2.15;;;;;;;;;;4954206;29;20051;-90
2022/04/06 15:24:45;;;;;;;5.28;2.10;;;;;;;;;;4955325;28;20057;-90
2022/04/06 15:27:10;;;;;;;3.72;2.08;;;;;;;;;;4970332;28;20023;-89
2022/04/06 15:29:36;;;;;;;2.80;2.10;;;;;;;;;;4955446;28;20031;-91
2022/04/06 15:32:02;;;;;;;5.78;2.17;;;;;;;;;;4955363;28;20034;-91
2022/04/06 15:37:22;;;;;;;3.60;2.40;;;;;;;;;;4955187;29;20042;-91
2022/04/06 15:39:48;;;;;;;5.68;2.50;;;;;;;;;;4970016;28;20027;-90
2022/04/06 15:42:17;;;;;;;7.60;3.20;;;;;;;;;;4954661;28;20031;-91
2022/04/06 15:44:43;;;;;;;11.73;5.90;;;;;;;;;;4954237;29;20158;-90
2022/04/06 15:47:09;;;;;;;20.27;7.32;;;;;;;;;;4954999;28;20122;-88
2022/04/06 15:49:34;;;;;;;14.57;6.28;;;;;;;;;;4955200;28;20027;-90
2022/04/06 15:51:59;;;;;;;6.32;3.30;;;;;;;;;;4954892;28;20038;-88
2022/04/06 15:54:24;;;;;;;9.00;4.63;;;;;;;;;;4955174;28;20027;-91
2022/04/06 15:56:50;;;;;;;5.88;2.80;;;;;;;;;;4955030;28;20034;-91
2022/04/06 15:59:15;;;;;;;6.30;3.20;;;;;;;;;;4970483;28;20110;-91
2022/04/06 16:01:40;;;;;;;4.90;2.97;;;;;;;;;;4954930;28;20070;-90
2022/04/06 16:04:05;;;;;;;9.05;3.35;;;;;;;;;;4954732;28;20039;-91
2022/04/06 16:06:30;;;;;;;8.80;3.17;;;;;;;;;;4953440;28;20468;-91
2022/04/06 16:08:55;;;;;;;8.73;3.00;;;;;;;;;;4954489;28;20024;-91
2022/04/06 16:11:21;;;;;;;9.93;3.85;;;;;;;;;;4954816;28;20034;-90
2022/04/06 16:13:46;;;;;;;7.40;3.55;;;;;;;;;;4954836;28;20518;-91
2022/04/06 16:16:11;;;;;;;9.85;4.05;;;;;;;;;;4953047;29;20049;-89
2022/04/06 16:18:37;;;;;;;8.18;3.85;;;;;;;;;;4953458;28;20015;-91
2022/04/06 16:21:02;;;;;;;6.60;3.40;;;;;;;;;;4953867;28;20062;-91
2022/04/06 16:23:27;;;;;;;8.95;3.65;;;;;;;;;;4953929;29;20111;-90
2022/04/06 16:25:52;;;;;;;8.93;4.03;;;;;;;;;;4954046;29;20490;-91
2022/04/06 16:28:18;;;;;;;5.93;3.10;;;;;;;;;;4955012;28;20023;-89
2022/04/06 16:30:43;;;;;;;9.38;4.15;;;;;;;;;;4953615;28;20026;-91
2022/04/06 16:33:10;;;;;;;6.75;3.80;;;;;;;;;;4954327;28;20030;-91
2022/04/06 16:35:35;;;;;;;6.35;3.35;;;;;;;;;;4969372;28;20031;-91
2022/04/06 16:38:00;;;;;;;7.38;3.40;;;;;;;;;;4969990;28;20463;-92
2022/04/06 16:40:25;;;;;;;10.25;3.55;;;;;;;;;;4954362;28;20428;-91
2022/04/06 16:42:50;;;;;;;6.35;2.75;;;;;;;;;;4969460;28;20027;-91
2022/04/06 16:45:16;;;;;;;6.60;3.42;;;;;;;;;;4954762;28;20027;-91
2022/04/06 16:47:41;;;;;;;8.75;3.50;;;;;;;;;;4953755;28;20038;-89
2022/04/06 16:52:51;;;;;;;6.65;3.00;;;;;;;;;;4953358;28;20086;-88
2022/04/06 16:55:18;;;;;;;4.15;3.08;;;;;;;;;;4971358;28;20015;-89
2022/04/06 16:57:44;;;;;;;9.38;3.20;;;;;;;;;;4973119;28;20023;-91
2022/04/06 17:00:11;;;;;;;7.85;2.85;;;;;;;;;;4957191;28;20015;-91
2022/04/06 17:02:36;;;;;;;5.47;2.95;;;;;;;;;;4956471;29;20490;-89
2022/04/06 17:05:02;;;;;;;5.85;3.20;;;;;;;;;;4957532;28;20015;-88
2022/04/06 17:07:28;;;;;;;5.13;3.15;;;;;;;;;;4956508;29;20020;-90
2022/04/06 17:09:54;;;;;;;8.77;3.70;;;;;;;;;;4956458;28;20019;-91
2022/04/06 17:12:20;;;;;;;7.20;3.58;;;;;;;;;;4957634;28;20027;-92
2022/04/06 17:14:45;;;;;;;7.35;3.92;;;;;;;;;;4972650;28;20038;-91
2022/04/06 17:17:11;;;;;;;9.60;3.80;;;;;;;;;;4957627;28;20031;-91
2022/04/06 17:19:40;;;;;;;8.30;3.50;;;;;;;;;;4957405;28;20019;-90
2022/04/06 17:22:05;;;;;;;7.65;3.38;;;;;;;;;;4956741;28;20468;-91
2022/04/06 17:24:30;;;;;;;13.13;3.67;;;;;;;;;;4957634;28;20027;-91
2022/04/06 17:26:56;;;;;;;7.97;4.00;;;;;;;;;;4957200;28;20023;-88
2022/04/06 17:29:24;;;;;;;9.68;3.90;;;;;;;;;;4957566;28;20019;-91
2022/04/06 17:31:49;;;;;;;7.53;3.85;;;;;;;;;;4957368;28;20050;-91
2022/04/06 17:34:15;;;;;;;7.63;3.80;;;;;;;;;;4972858;28;20019;-90
2022/04/06 17:36:40;;;;;;;9.63;4.60;;;;;;;;;;4972796;28;20108;-90
2022/04/06 17:39:05;;;;;;;8.85;3.33;;;;;;;;;;4956576;28;20027;-91
2022/04/06 17:41:31;;;;;;;9.45;3.80;;;;;;;;;;4972163;28;20059;-91
2022/04/06 17:43:56;;;;;;;8.00;3.55;;;;;;;;;;4957092;28;20035;-89
2022/04/06 17:52:27;;;;;;;7.22;3.85;;;;;;;;;;5368381;23;20086;-90
2022/04/06 17:54:52;;;;;;;8.98;3.75;;;;;;;;;;4952939;28;20031;-91
2022/04/06 17:57:18;;;;;;;12.68;4.30;;;;;;;;;;4938421;29;20019;-90
2022/04/06 17:59:43;;;;;;;11.20;4.50;;;;;;;;;;4938275;29;20052;-89
2022/04/06 18:02:09;;;;;;;11.60;4.70;;;;;;;;;;4938167;29;20024;-89
2022/04/06 18:04:34;;;;;;;9.70;3.97;;;;;;;;;;4951904;28;20479;-85
2022/04/06 18:07:00;;;;;;;10.05;3.90;;;;;;;;;;4943143;29;20032;-83
2022/04/06 18:09:25;;;;;;;9.73;3.97;;;;;;;;;;4938399;29;20167;-85
2022/04/06 18:14:35;;;;;;;6.93;3.25;;;;;;;;;;4924001;29;20039;-89
2022/04/06 18:17:00;;;;;;;12.10;4.95;;;;;;;;;;4945782;29;20031;-89
2022/04/06 18:19:25;;;;;;;9.70;4.53;;;;;;;;;;4945060;29;20024;-89
2022/04/06 18:21:50;;;;;;;9.57;3.63;;;;;;;;;;4935385;28;20035;-88
2022/04/06 18:24:16;;;;;;;10.43;4.10;;;;;;;;;;4937769;29;20083;-90
2022/04/06 18:26:42;;;;;;;12.77;5.13;;;;;;;;;;4950002;29;20020;-89
2022/04/06 18:29:08;;;;;;;19.85;9.73;;;;;;;;;;4951409;29;20059;-90
2022/04/06 18:31:34;;;;;;;9.10;4.85;;;;;;;;;;4945664;29;20080;-90
2022/04/06 18:33:59;;;;;;;9.98;3.90;;;;;;;;;;4934297;29;20027;-89
2022/04/06 18:36:25;;;;;;;8.27;4.18;;;;;;;;;;4937495;29;20019;-90
2022/04/06 18:38:50;;;;;;;10.13;3.92;;;;;;;;;;4937308;29;20099;-89
2022/04/06 18:41:15;;;;;;;11.90;4.50;;;;;;;;;;4937001;29;20023;-90
2022/04/06 18:43:42;;;;;;;8.63;3.40;;;;;;;;;;5003457;23;20035;-80
2022/04/06 18:46:07;;;;;;;9.30;4.03;;;;;;;;;;4983417;28;20476;-80
2022/04/06 18:48:32;;;;;;;7.38;3.33;;;;;;;;;;4965824;28;20109;-80
2022/04/06 18:50:58;;;;;;;8.18;3.90;;;;;;;;;;4964384;28;20170;-80
2022/04/06 18:53:24;;;;;;;7.38;3.80;;;;;;;;;;4963426;28;20039;-81
2022/04/06 18:55:49;;;;;;;4.18;3.17;;;;;;;;;;4963119;28;20479;-81
2022/04/06 18:58:14;;;;;;;8.98;3.70;;;;;;;;;;4963988;28;20023;-81
2022/04/06 19:00:40;;;;;;;7.47;4.03;;;;;;;;;;4961692;28;20147;-81
2022/04/06 19:03:05;;;;;;;9.05;3.63;;;;;;;;;;4962870;28;20134;-81
2022/04/06 19:05:31;;;;;;;6.43;3.35;;;;;;;;;;4964726;28;20034;-81
2022/04/06 19:08:01;;;;;;;8.00;3.60;;;;;;;;;;4963888;28;20023;-81
2022/04/06 19:10:26;;;;;;;6.78;3.40;;;;;;;;;;4960889;28;20026;-81
2022/04/06 19:12:52;;;;;;;7.50;3.83;;;;;;;;;;4963430;28;20043;-81
2022/04/06 19:15:18;;;;;;;9.57;3.70;;;;;;;;;;4959248;28;20027;-81
2022/04/06 19:17:44;;;;;;;11.30;4.65;;;;;;;;;;4962801;28;20027;-82
2022/04/06 19:20:10;;;;;;;8.90;4.00;;;;;;;;;;4961946;28;20031;-83
2022/04/06 19:22:36;;;;;;;8.15;3.83;;;;;;;;;;4953863;28;20019;-83
2022/04/06 19:25:01;;;;;;;7.65;3.90;;;;;;;;;;4954018;28;20098;-84
2022/04/06 19:27:26;;;;;;;5.85;3.67;;;;;;;;;;4962886;28;20084;-84
2022/04/06 19:29:53;;;;;;;7.18;4.10;;;;;;;;;;4973589;28;20167;-83
2022/04/06 19:32:18;;;;;;;9.55;4.22;;;;;;;;;;4973703;28;20038;-83
2022/04/06 19:34:44;;;;;;;6.85;3.35;;;;;;;;;;4973458;28;20399;-84
2022/04/06 19:37:09;;;;;;;10.45;4.50;;;;;;;;;;4972059;28;20494;-82
2022/04/06 19:39:35;;;;;;;11.73;4.43;;;;;;;;;;4972157;28;20042;-83
2022/04/06 19:42:01;;;;;;;12.35;4.22;;;;;;;;;;4973450;28;20027;-85
2022/04/06 19:44:26;;;;;;;8.35;4.43;;;;;;;;;;4973392;28;20034;-85
2022/04/06 19:46:51;;;;;;;10.23;4.28;;;;;;;;;;4973024;28;20050;-84
2022/04/06 19:49:17;;;;;;;7.00;3.90;;;;;;;;;;4972835;28;20026;-85
2022/04/06 19:51:44;;;;;;;7.63;3.88;;;;;;;;;;4971659;28;20031;-85
2022/04/06 19:54:09;;;;;;;9.38;4.30;;;;;;;;;;4972475;28;20483;-84
2022/04/06 19:56:37;;;;;;;10.27;4.75;;;;;;;;;;4972841;28;20038;-84
2022/04/06 19:59:04;;;;;;;12.32;5.13;;;;;;;;;;4973311;28;20031;-84
2022/04/06 20:01:31;;;;;;;6.18;3.85;;;;;;;;;;4973147;28;20018;-84
2022/04/06 20:03:56;;;;;;;6.32;4.13;;;;;;;;;;4973379;28;20019;-84
2022/04/06 20:06:21;;;;;;;8.45;4.20;;;;;;;;;;4972877;28;20431;-85
2022/04/06 20:08:47;;;;;;;6.30;4.18;;;;;;;;;;4972955;28;20030;-84
2022/04/06 20:11:12;;;;;;;9.20;4.38;;;;;;;;;;4972959;28;20411;-84
2022/04/06 20:13:37;;;;;;;8.82;3.90;;;;;;;;;;4971346;28;20023;-84
2022/04/06 20:16:02;;;;;;;8.73;4.15;;;;;;;;;;4972877;28;20019;-84
2022/04/06 20:18:30;;;;;;;9.30;4.63;;;;;;;;;;4958198;28;20038;-84
2022/04/06 20:20:55;;;;;;;5.80;4.03;;;;;;;;;;4951913;28;20023;-84
2022/04/06 20:23:21;;;;;;;9.07;4.10;;;;;;;;;;4952232;28;20077;-85
2022/04/06 20:25:46;;;;;;;6.82;3.70;;;;;;;;;;4951745;28;20464;-84
2022/04/06 20:28:12;;;;;;;8.10;3.92;;;;;;;;;;4953094;28;20034;-84
2022/04/06 20:30:37;;;;;;;9.68;4.03;;;;;;;;;;4955253;28;20057;-83
2022/04/06 20:33:02;;;;;;;6.72;4.18;;;;;;;;;;4954581;28;20035;-84
2022/04/06 20:35:27;;;;;;;7.88;4.45;;;;;;;;;;4953675;28;20630;-83
2022/04/06 20:37:53;;;;;;;8.63;4.88;;;;;;;;;;4955447;28;20030;-83
2022/04/06 20:40:19;;;;;;;6.45;4.20;;;;;;;;;;4955224;28;20045;-83
2022/04/06 20:42:44;;;;;;;9.20;4.22;;;;;;;;;;4955338;28;20027;-83
2022/04/06 20:45:11;;;;;;;6.38;3.58;;;;;;;;;;4955428;28;20038;-83
2022/04/06 20:47:36;;;;;;;7.90;4.10;;;;;;;;;;4954873;28;20101;-85
2022/04/06 20:50:02;;;;;;;6.78;3.75;;;;;;;;;;4954888;28;20163;-84
2022/04/06 20:52:27;;;;;;;6.97;3.30;;;;;;;;;;4954395;28;20460;-84
2022/04/06 20:54:53;;;;;;;11.68;3.83;;;;;;;;;;4953389;28;20410;-84
2022/04/06 20:57:18;;;;;;;4.38;3.00;;;;;;;;;;4954740;28;20027;-84
2022/04/06 20:59:43;;;;;;;5.30;3.40;;;;;;;;;;4956194;28;20027;-84
2022/04/06 21:02:08;;;;;;;6.10;3.10;;;;;;;;;;4956043;28;20421;-84
2022/04/06 21:04:34;;;;;;;6.40;3.55;;;;;;;;;;4957163;28;20016;-84
2022/04/06 21:06:59;;;;;;;5.82;3.20;;;;;;;;;;4956869;28;20038;-84
2022/04/06 21:09:24;;;;;;;6.20;3.38;;;;;;;;;;4956365;28;20011;-84
2022/04/06 21:11:50;;;;;;;8.73;3.55;;;;;;;;;;4956478;28;20456;-84
2022/04/06 21:14:15;;;;;;;8.32;4.05;;;;;;;;;;4956889;28;20058;-84
2022/04/06 21:16:41;;;;;;;4.85;3.13;;;;;;;;;;4955335;28;20019;-84
2022/04/06 21:19:07;;;;;;;5.97;3.17;;;;;;;;;;4956703;28;20472;-84
2022/04/06 21:21:33;;;;;;;7.85;3.67;;;;;;;;;;4956310;28;20015;-84
2022/04/06 21:23:58;;;;;;;7.50;3.58;;;;;;;;;;4956380;28;20094;-84
2022/04/06 21:26:23;;;;;;;9.40;3.53;;;;;;;;;;4956883;28;20019;-84
2022/04/06 21:28:49;;;;;;;5.93;3.40;;;;;;;;;;4957117;28;20057;-84
2022/04/06 21:31:15;;;;;;;6.97;3.55;;;;;;;;;;4956694;28;20065;-84
2022/04/06 21:33:40;;;;;;;7.32;3.70;;;;;;;;;;4956457;28;20077;-84
2022/04/06 21:36:05;;;;;;;6.30;3.80;;;;;;;;;;4956732;28;20455;-84
2022/04/06 21:38:31;;;;;;;7.50;4.00;;;;;;;;;;4956442;28;20456;-84
2022/04/06 21:40:56;;;;;;;7.47;4.43;;;;;;;;;;4956473;28;20033;-84
2022/04/06 21:43:21;;;;;;;5.95;3.58;;;;;;;;;;4954574;28;20027;-84
2022/04/06 21:45:47;;;;;;;9.05;4.00;;;;;;;;;;4955601;28;20019;-85
2022/04/06 21:48:13;;;;;;;7.07;4.47;;;;;;;;;;4955767;28;20519;-85
2022/04/06 21:50:42;;;;;;;7.22;4.72;;;;;;;;;;4956157;28;20019;-85
2022/04/06 21:53:07;;;;;;;3.65;2.70;;;;;;;;;;4955998;28;20067;-85
2022/04/06 21:55:32;;;;;;;5.65;2.50;;;;;;;;;;4956301;28;20046;-86
2022/04/06 21:58:04;;;;;;;2.33;1.60;;;;;;;;;;4955713;28;20432;-86
2022/04/06 22:00:30;;;;;;;1.40;1.23;;;;;;;;;;4970643;28;20043;-86
2022/04/06 22:02:59;;;;;;;3.65;1.38;;;;;;;;;;4956300;28;20107;-85
2022/04/06 22:05:25;;;;;;;4.18;1.45;;;;;;;;;;4971251;28;20026;-85
2022/04/06 22:07:50;;;;;;;3.28;2.08;;;;;;;;;;4970604;28;20110;-85
2022/04/06 22:10:15;;;;;;;4.88;2.58;;;;;;;;;;4955576;28;20015;-85
2022/04/06 22:12:40;;;;;;;6.07;3.20;;;;;;;;;;4955705;28;20444;-85
2022/04/06 22:15:06;;;;;;;5.10;3.33;;;;;;;;;;4970567;28;20024;-85
2022/04/06 22:17:31;;;;;;;6.95;3.90;;;;;;;;;;4955948;28;20023;-85
2022/04/06 22:19:56;;;;;;;6.28;3.80;;;;;;;;;;4955808;28;20523;-84
2022/04/06 22:22:21;;;;;;;8.32;3.75;;;;;;;;;;4955841;28;20031;-84
2022/04/06 22:24:47;;;;;;;6.03;3.22;;;;;;;;;;4970840;28;20023;-85
2022/04/06 22:27:12;;;;;;;7.95;3.63;;;;;;;;;;4955835;28;20361;-83
2022/04/06 22:29:37;;;;;;;5.32;3.53;;;;;;;;;;4970490;28;20536;-85
2022/04/06 22:32:02;;;;;;;8.25;3.47;;;;;;;;;;4955465;28;20041;-85
2022/04/06 22:34:28;;;;;;;9.02;3.28;;;;;;;;;;4970896;28;20024;-84
2022/04/06 22:36:53;;;;;;;7.78;3.55;;;;;;;;;;4970277;28;20019;-84
2022/04/06 22:39:18;;;;;;;5.15;3.00;;;;;;;;;;4955377;28;20015;-84
2022/04/06 22:41:43;;;;;;;5.65;3.55;;;;;;;;;;4955300;28;20472;-85
2022/04/06 22:44:08;;;;;;;3.75;2.20;;;;;;;;;;4955385;28;20117;-84
2022/04/06 22:46:34;;;;;;;4.63;2.35;;;;;;;;;;4955054;28;20027;-85
2022/04/06 22:48:59;;;;;;;2.20;2.00;;;;;;;;;;4955406;28;20511;-84
2022/04/06 22:51:25;;;;;;;2.65;1.92;;;;;;;;;;4954727;28;20023;-84
2022/04/06 22:53:50;;;;;;;2.10;1.80;;;;;;;;;;4969905;28;20084;-85
2022/04/06 22:56:15;;;;;;;3.50;2.15;;;;;;;;;;4969687;28;20384;-85
2022/04/06 22:58:40;;;;;;;4.47;2.17;;;;;;;;;;4955129;28;20042;-84
2022/04/06 23:01:06;;;;;;;3.28;2.38;;;;;;;;;;4955099;28;20074;-84
2022/04/06 23:03:31;;;;;;;3.53;2.20;;;;;;;;;;4955373;28;20066;-84
2022/04/06 23:05:56;;;;;;;4.45;2.28;;;;;;;;;;4955017;28;20388;-85
2022/04/06 23:08:21;;;;;;;4.65;2.45;;;;;;;;;;4954918;28;20468;-84
2022/04/06 23:10:46;;;;;;;4.60;3.67;;;;;;;;;;4954792;28;20030;-84
2022/04/06 23:13:12;;;;;;;5.90;2.80;;;;;;;;;;4954623;28;20059;-85
2022/04/06 23:15:38;;;;;;;5.32;2.78;;;;;;;;;;4954635;28;20487;-84
2022/04/06 23:18:03;;;;;;;4.15;2.92;;;;;;;;;;4969216;28;20027;-85
2022/04/06 23:20:29;;;;;;;4.93;2.83;;;;;;;;;;4954444;28;20090;-84
2022/04/06 23:22:54;;;;;;;5.00;3.10;;;;;;;;;;4954556;28;20019;-85
2022/04/06 23:25:20;;;;;;;5.22;3.20;;;;;;;;;;4954869;28;20436;-84
2022/04/06 23:27:45;;;;;;;5.18;3.28;;;;;;;;;;4969461;28;20117;-84
2022/04/06 23:30:11;;;;;;;2.70;2.40;;;;;;;;;;4954553;28;20058;-84
2022/04/06 23:32:39;;;;;;;3.80;2.45;;;;;;;;;;4954696;29;20027;-84
2022/04/06 23:35:06;;;;;;;4.70;2.75;;;;;;;;;;4954506;28;20352;-84
2022/04/06 23:37:31;;;;;;;3.20;2.60;;;;;;;;;;4954748;28;20377;-85
2022/04/06 23:39:57;;;;;;;5.55;3.22;;;;;;;;;;4954446;28;20571;-84
2022/04/06 23:42:22;;;;;;;4.43;2.25;;;;;;;;;;4954286;28;20110;-84
2022/04/06 23:44:47;;;;;;;3.53;2.30;;;;;;;;;;4953950;28;20063;-84
2022/04/06 23:47:12;;;;;;;3.08;2.17;;;;;;;;;;4954501;29;20023;-84
2022/04/06 23:49:38;;;;;;;5.57;2.60;;;;;;;;;;4954667;28;20472;-84
2022/04/06 23:52:03;;;;;;;2.70;2.35;;;;;;;;;;4954436;28;20027;-84
2022/04/06 23:54:28;;;;;;;7.32;2.65;;;;;;;;;;4954334;28;20070;-84
2022/04/06 23:56:53;;;;;;;4.03;2.50;;;;;;;;;;4968763;28;20057;-85
2022/04/06 23:59:19;;;;;;;4.40;2.70;;;;;;;;;;4954189;28;20015;-84
